createdAt,value
2023-04-17T00:04:11.386Z,11.20
2023-04-17T00:09:04.474Z,11.20
2023-04-17T00:13:56.509Z,11.10
2023-04-17T00:18:48.570Z,11.10
2023-04-17T00:23:40.794Z,11.20
2023-04-17T00:28:33.496Z,11.10
2023-04-17T00:33:25.873Z,11.10
2023-04-17T00:38:18.776Z,11.10
2023-04-17T00:43:11.057Z,11.10
2023-04-17T00:48:06.836Z,11.10
2023-04-17T00:52:59.662Z,11.20
2023-04-17T00:57:51.774Z,11.10
2023-04-17T01:02:45.053Z,11.10
2023-04-17T01:13:22.519Z,11.00
2023-04-17T01:18:16.610Z,10.90
2023-04-17T01:23:09.296Z,10.90
2023-04-17T01:28:01.388Z,11.00
2023-04-17T01:32:56.077Z,11.00
2023-04-17T01:37:48.139Z,11.00
2023-04-17T01:42:40.377Z,10.90
2023-04-17T01:47:35.000Z,10.90
2023-04-17T01:52:27.132Z,10.90
2023-04-17T01:57:19.201Z,10.90
2023-04-17T02:02:11.327Z,10.80
2023-04-17T02:07:03.458Z,10.80
2023-04-17T02:11:56.899Z,10.70
2023-04-17T02:16:48.919Z,10.70
2023-04-17T02:21:40.927Z,10.70
2023-04-17T02:26:34.179Z,10.70
2023-04-17T02:31:26.386Z,10.70
2023-04-17T02:36:18.508Z,10.70
2023-04-17T02:41:11.426Z,10.80
2023-04-17T02:46:05.327Z,10.80
2023-04-17T02:50:58.850Z,10.80
2023-04-17T02:55:51.145Z,10.80
2023-04-17T03:00:47.410Z,10.80
2023-04-17T03:05:42.457Z,10.80
2023-04-17T03:10:35.248Z,10.70
2023-04-17T03:15:27.416Z,10.70
2023-04-17T03:20:19.571Z,10.70
2023-04-17T03:25:11.655Z,10.80
2023-04-17T03:30:11.249Z,10.70
2023-04-17T03:35:06.661Z,10.70
2023-04-17T03:39:59.437Z,10.70
2023-04-17T03:44:52.205Z,10.70
2023-04-17T03:49:44.953Z,10.70
2023-04-17T03:54:38.447Z,10.70
2023-04-17T03:59:32.014Z,10.70
2023-04-17T04:04:24.843Z,10.70
2023-04-17T04:09:25.541Z,10.70
2023-04-17T04:14:17.594Z,10.70
2023-04-17T04:19:13.080Z,10.70
2023-04-17T04:24:05.608Z,10.70
2023-04-17T04:29:00.122Z,10.70
2023-04-17T04:34:02.426Z,10.70
2023-04-17T04:38:59.892Z,10.70
2023-04-17T04:43:57.397Z,10.70
2023-04-17T04:48:49.619Z,10.80
2023-04-17T04:53:41.843Z,10.70
2023-04-17T04:58:35.273Z,10.70
2023-04-17T05:03:29.243Z,10.60
2023-04-17T05:08:21.482Z,10.40
2023-04-17T05:13:23.074Z,10.40
2023-04-17T05:18:16.651Z,10.50
2023-04-17T05:23:09.009Z,10.50
2023-04-17T05:28:01.283Z,10.60
2023-04-17T05:32:54.491Z,10.70
2023-04-17T05:37:56.969Z,10.60
2023-04-17T05:42:49.107Z,10.70
2023-04-17T05:47:41.883Z,10.70
2023-04-17T05:52:34.201Z,10.70
2023-04-17T05:57:26.313Z,10.70
2023-04-17T06:02:18.465Z,10.90
2023-04-17T06:07:11.880Z,10.80
2023-04-17T06:12:04.782Z,10.90
2023-04-17T06:16:58.014Z,10.80
2023-04-17T06:21:50.694Z,10.80
2023-04-17T06:26:45.137Z,11.00
2023-04-17T06:31:37.774Z,11.20
2023-04-17T06:36:31.046Z,11.50
2023-04-17T06:41:25.099Z,11.60
2023-04-17T06:46:19.000Z,11.80
2023-04-17T06:51:11.217Z,12.00
2023-04-17T06:56:03.505Z,12.00
2023-04-17T07:00:55.813Z,11.70
2023-04-17T07:05:48.964Z,11.30
2023-04-17T07:10:41.169Z,11.50
2023-04-17T07:15:33.249Z,11.60
2023-04-17T07:20:25.624Z,12.20
2023-04-17T07:25:17.816Z,12.10
2023-04-17T07:30:10.504Z,12.10
2023-04-17T07:35:02.659Z,12.10
2023-04-17T07:39:54.829Z,11.90
2023-04-17T07:44:48.439Z,11.30
2023-04-17T07:49:40.701Z,11.30
2023-04-17T07:54:33.202Z,11.40
2023-04-17T07:59:25.518Z,11.60
2023-04-17T08:04:17.687Z,11.50
2023-04-17T08:09:10.165Z,11.80
2023-04-17T08:14:03.029Z,11.90
2023-04-17T08:18:55.154Z,11.70
2023-04-17T08:23:48.845Z,12.20
2023-04-17T08:28:41.642Z,12.40
2023-04-17T08:33:33.890Z,12.70
2023-04-17T08:38:27.503Z,13.00
2023-04-17T08:43:21.198Z,13.30
2023-04-17T08:48:13.625Z,13.20
2023-04-17T08:53:06.525Z,12.80
2023-04-17T08:58:04.098Z,12.90
2023-04-17T09:02:58.195Z,12.80
2023-04-17T09:08:05.581Z,13.50
2023-04-17T09:13:01.390Z,14.20
2023-04-17T09:17:53.456Z,14.50
2023-04-17T09:22:46.600Z,14.50
2023-04-17T09:27:38.676Z,13.60
2023-04-17T09:32:32.925Z,13.00
2023-04-17T09:37:25.664Z,12.80
2023-04-17T09:42:17.761Z,13.30
2023-04-17T09:47:12.493Z,13.10
2023-04-17T09:52:04.637Z,12.50
2023-04-17T09:56:57.868Z,11.90
2023-04-17T10:01:50.921Z,12.30
2023-04-17T10:06:43.366Z,12.90
2023-04-17T10:11:44.910Z,13.50
2023-04-17T10:16:38.731Z,14.00
2023-04-17T10:21:31.216Z,13.50
2023-04-17T10:26:26.600Z,13.70
2023-04-17T10:31:23.698Z,14.50
2023-04-17T10:36:37.889Z,15.00
2023-04-17T10:41:32.435Z,15.10
2023-04-17T10:46:26.562Z,14.50
2023-04-17T10:51:21.715Z,14.00
2023-04-17T10:56:19.264Z,13.80
2023-04-17T11:01:12.335Z,13.50
2023-04-17T11:06:05.501Z,13.70
2023-04-17T11:10:57.873Z,13.00
2023-04-17T11:15:51.272Z,12.70
2023-04-17T11:20:43.548Z,12.90
2023-04-17T11:25:35.834Z,13.20
2023-04-17T11:30:44.555Z,13.10
2023-04-17T11:35:41.570Z,12.60
2023-04-17T11:40:35.147Z,12.70
2023-04-17T11:45:31.755Z,12.90
2023-04-17T11:50:28.803Z,13.10
2023-04-17T11:55:21.007Z,13.20
2023-04-17T12:00:16.207Z,13.00
2023-04-17T12:05:15.774Z,12.70
2023-04-17T12:10:08.665Z,12.30
2023-04-17T12:15:01.062Z,12.50
2023-04-17T12:19:53.889Z,12.60
2023-04-17T12:24:45.902Z,12.50
2023-04-17T12:34:34.835Z,13.20
2023-04-17T12:39:27.010Z,13.20
2023-04-17T12:44:18.924Z,13.50
2023-04-17T12:49:11.403Z,13.50
2023-04-17T12:54:03.888Z,13.70
2023-04-17T12:58:56.136Z,13.80
2023-04-17T13:03:48.424Z,13.10
2023-04-17T13:08:40.679Z,12.90
2023-04-17T13:13:32.788Z,12.30
2023-04-17T13:18:24.969Z,12.40
2023-04-17T13:23:17.123Z,12.20
2023-04-17T13:28:09.211Z,12.30
2023-04-17T13:33:01.426Z,12.50
2023-04-17T13:37:54.997Z,12.50
2023-04-17T13:42:47.053Z,12.50
2023-04-17T13:47:41.512Z,12.50
2023-04-17T13:52:33.596Z,12.10
2023-04-17T13:57:25.679Z,11.80
2023-04-17T14:02:17.916Z,11.50
2023-04-17T14:07:12.824Z,11.70
2023-04-17T14:12:05.018Z,11.60
2023-04-17T14:16:57.124Z,11.50
2023-04-17T14:21:49.218Z,11.70
2023-04-17T14:26:42.099Z,12.10
2023-04-17T14:31:34.551Z,12.00
2023-04-17T14:36:26.685Z,12.40
2023-04-17T14:41:19.978Z,12.70
2023-04-17T14:46:12.851Z,12.50
2023-04-17T14:51:05.388Z,12.80
2023-04-17T14:55:59.220Z,13.10
2023-04-17T15:00:51.342Z,13.20
2023-04-17T15:05:45.553Z,13.10
2023-04-17T15:10:50.361Z,13.50
2023-04-17T15:15:43.429Z,13.70
2023-04-17T15:20:36.573Z,13.90
2023-04-17T15:25:29.508Z,13.30
2023-04-17T15:30:21.889Z,12.80
2023-04-17T15:35:14.158Z,12.60
2023-04-17T15:40:08.042Z,12.40
2023-04-17T15:45:01.565Z,12.20
2023-04-17T15:49:53.612Z,11.60
2023-04-17T15:54:45.659Z,11.50
2023-04-17T15:59:37.882Z,11.20
2023-04-17T16:04:30.049Z,11.00
2023-04-17T16:09:24.493Z,10.80
2023-04-17T16:14:16.847Z,11.00
2023-04-17T16:19:09.264Z,11.10
2023-04-17T16:24:01.374Z,11.40
2023-04-17T16:28:53.458Z,11.30
2023-04-17T16:33:45.983Z,11.20
2023-04-17T16:38:39.708Z,11.00
2023-04-17T16:43:33.508Z,10.70
2023-04-17T16:48:25.884Z,10.70
2023-04-17T16:53:18.464Z,10.60
2023-04-17T16:58:10.721Z,10.40
2023-04-17T17:03:03.202Z,10.30
2023-04-17T17:07:55.370Z,10.30
2023-04-17T17:12:47.501Z,10.40
2023-04-17T17:17:39.955Z,10.40
2023-04-17T17:22:32.092Z,10.20
2023-04-17T17:27:24.141Z,10.10
2023-04-17T17:32:16.873Z,10.10
2023-04-17T17:37:09.069Z,10.10
2023-04-17T17:42:04.252Z,10.10
2023-04-17T17:46:56.252Z,10.00
2023-04-17T17:51:48.279Z,10.00
2023-04-17T17:56:40.447Z,10.10
2023-04-17T18:01:32.615Z,10.10
2023-04-17T18:06:25.984Z,10.10
2023-04-17T18:11:18.097Z,10.10
2023-04-17T18:16:10.584Z,10.10
2023-04-17T18:21:07.119Z,9.90
2023-04-17T18:26:00.251Z,9.90
2023-04-17T18:30:52.329Z,9.90
2023-04-17T18:35:44.677Z,9.90
2023-04-17T18:40:36.736Z,9.90
2023-04-17T18:45:28.915Z,9.70
2023-04-17T18:50:21.274Z,9.70
2023-04-17T18:55:13.905Z,9.70
2023-04-17T19:00:06.629Z,9.70
2023-04-17T19:04:58.791Z,9.70
2023-04-17T19:09:50.918Z,9.80
2023-04-17T19:14:42.994Z,9.90
2023-04-17T19:19:35.034Z,9.80
2023-04-17T19:24:27.174Z,9.70
2023-04-17T19:29:19.244Z,9.60
2023-04-17T19:34:11.325Z,9.60
2023-04-17T19:39:04.877Z,9.60
2023-04-17T19:43:56.910Z,9.60
2023-04-17T19:48:49.922Z,9.50
2023-04-17T19:53:43.375Z,9.40
2023-04-17T19:58:36.510Z,9.40
2023-04-17T20:03:30.554Z,9.30
2023-04-17T20:08:22.863Z,9.40
2023-04-17T20:13:14.940Z,9.40
2023-04-17T20:18:08.956Z,9.50
2023-04-17T20:23:01.233Z,9.50
2023-04-17T20:27:54.963Z,9.30
2023-04-17T20:32:48.245Z,9.30
2023-04-17T20:37:44.326Z,9.40
2023-04-17T20:42:36.523Z,9.40
2023-04-17T20:47:28.596Z,9.40
2023-04-17T20:52:20.820Z,9.30
2023-04-17T20:57:12.850Z,9.30
2023-04-17T21:02:05.056Z,9.40
2023-04-17T21:06:57.243Z,9.40
2023-04-17T21:11:49.819Z,9.50
2023-04-17T21:16:44.492Z,9.40
2023-04-17T21:21:36.850Z,9.50
2023-04-17T21:26:29.418Z,9.60
2023-04-17T21:31:21.561Z,9.60
2023-04-17T21:36:14.228Z,9.70
2023-04-17T21:41:06.350Z,9.60
2023-04-17T21:45:58.637Z,9.60
2023-04-17T21:50:51.202Z,9.60
2023-04-17T21:55:43.353Z,9.60
2023-04-17T22:00:35.391Z,9.60
2023-04-17T22:05:29.834Z,9.70
2023-04-17T22:10:23.148Z,9.60
2023-04-17T22:15:15.104Z,9.60
2023-04-17T22:20:09.212Z,9.60
2023-04-17T22:25:01.287Z,9.50
2023-04-17T22:29:53.309Z,9.50
2023-04-17T22:34:49.182Z,9.60
2023-04-17T22:39:41.216Z,9.60
2023-04-17T22:44:33.485Z,9.40
2023-04-17T22:49:25.525Z,9.40
2023-04-17T22:54:22.857Z,9.40
2023-04-17T22:59:15.504Z,9.30
2023-04-17T23:04:07.804Z,9.30
2023-04-17T23:08:59.900Z,9.40
2023-04-17T23:13:51.933Z,9.50
2023-04-17T23:18:43.936Z,9.50
2023-04-17T23:23:36.332Z,9.50
2023-04-17T23:28:30.730Z,9.60
2023-04-17T23:33:22.830Z,9.60
2023-04-17T23:38:14.844Z,9.60
2023-04-17T23:43:07.410Z,9.70
2023-04-17T23:47:59.558Z,9.70
2023-04-17T23:52:53.415Z,9.70
2023-04-17T23:57:45.405Z,9.70
